Time;durP1;ratioP1;P1;durP2;ratioP2;P2;SDS_P1;SDS_P2;PMS_P1;PMS_P2;Temp;Humidity;BMP_temperature;BMP_pressure;BME280_temperature;BME280_humidity;BME280_pressure;Samples;Min_cycle;Max_cycle;Signal;HPM_P1;HPM_P2
2021/10/10 00:00:53;;;;;;;18.70;12.20;;;;;;;;;;5139676;27;20055;-61
2021/10/10 00:03:19;;;;;;;18.65;12.15;;;;;;;;;;5053858;27;20076;-60
2021/10/10 00:05:45;;;;;;;19.10;13.02;;;;;;;;;;5031985;28;20029;-60
2021/10/10 00:08:11;;;;;;;16.00;11.57;;;;;;;;;;5100299;28;20078;-60
2021/10/10 00:10:37;;;;;;;15.93;11.85;;;;;;;;;;5032203;28;20030;-60
2021/10/10 00:13:03;;;;;;;16.60;12.00;;;;;;;;;;5032205;28;20022;-60
2021/10/10 00:15:29;;;;;;;15.15;11.70;;;;;;;;;;5032215;28;20026;-61
2021/10/10 00:17:55;;;;;;;18.70;12.00;;;;;;;;;;5024159;28;20033;-61
2021/10/10 00:20:22;;;;;;;19.40;11.45;;;;;;;;;;5012207;28;20029;-61
2021/10/10 00:22:48;;;;;;;20.77;11.70;;;;;;;;;;5012126;28;20018;-61
2021/10/10 00:25:14;;;;;;;16.52;11.65;;;;;;;;;;5012285;28;20082;-61
2021/10/10 00:27:40;;;;;;;15.90;11.65;;;;;;;;;;5012103;28;20471;-61
2021/10/10 00:30:07;;;;;;;17.88;11.65;;;;;;;;;;5012152;28;20030;-61
2021/10/10 00:32:33;;;;;;;13.75;10.32;;;;;;;;;;5011830;28;20385;-61
2021/10/10 00:34:59;;;;;;;16.08;10.98;;;;;;;;;;5099862;28;20026;-61
2021/10/10 00:37:26;;;;;;;17.10;10.98;;;;;;;;;;5031304;28;20489;-61
2021/10/10 00:39:52;;;;;;;18.02;10.48;;;;;;;;;;5031530;28;20044;-61
2021/10/10 00:42:18;;;;;;;15.23;10.57;;;;;;;;;;5031708;28;20457;-61
2021/10/10 00:44:47;;;;;;;14.93;11.40;;;;;;;;;;5031643;28;20041;-61
2021/10/10 00:47:13;;;;;;;16.90;10.65;;;;;;;;;;5031311;28;20036;-61
2021/10/10 00:49:39;;;;;;;14.77;10.70;;;;;;;;;;5031120;28;20061;-61
2021/10/10 00:52:06;;;;;;;17.20;10.38;;;;;;;;;;5018048;27;20029;-61
2021/10/10 00:54:32;;;;;;;17.23;10.65;;;;;;;;;;5135887;27;20032;-61
2021/10/10 00:56:58;;;;;;;14.68;9.80;;;;;;;;;;5135636;27;20447;-62
2021/10/10 00:59:25;;;;;;;13.13;9.93;;;;;;;;;;5135714;27;20118;-61
2021/10/10 01:01:51;;;;;;;13.32;9.60;;;;;;;;;;5135496;27;20019;-61
2021/10/10 01:04:18;;;;;;;12.48;9.77;;;;;;;;;;5117110;27;20096;-61
2021/10/10 01:06:44;;;;;;;14.23;9.32;;;;;;;;;;5135297;27;20019;-61
2021/10/10 01:09:12;;;;;;;17.67;10.27;;;;;;;;;;5052273;27;20065;-61
2021/10/10 01:11:39;;;;;;;13.77;10.23;;;;;;;;;;5031115;28;20068;-61
2021/10/10 01:14:05;;;;;;;14.23;10.02;;;;;;;;;;5030394;28;20045;-61
2021/10/10 01:16:31;;;;;;;15.35;9.68;;;;;;;;;;5031027;28;20030;-61
2021/10/10 01:18:57;;;;;;;16.23;8.85;;;;;;;;;;5030874;28;20068;-61
2021/10/10 01:21:23;;;;;;;13.02;9.18;;;;;;;;;;5099229;28;20030;-60
2021/10/10 01:23:49;;;;;;;11.73;8.90;;;;;;;;;;5098977;28;20082;-61
2021/10/10 01:26:24;;;;;;;12.68;8.90;;;;;;;;;;5086265;28;20038;-60
2021/10/10 01:28:50;;;;;;;12.38;9.07;;;;;;;;;;5011100;28;20083;-62
2021/10/10 01:31:16;;;;;;;10.70;8.52;;;;;;;;;;5011010;28;20469;-61
2021/10/10 01:33:43;;;;;;;10.85;8.70;;;;;;;;;;5011066;28;20076;-61
2021/10/10 01:36:13;;;;;;;10.20;8.13;;;;;;;;;;5010490;28;20057;-61
2021/10/10 01:38:40;;;;;;;10.85;8.20;;;;;;;;;;5010847;28;20029;-61
2021/10/10 01:41:06;;;;;;;11.68;7.45;;;;;;;;;;5011003;28;20018;-61
2021/10/10 01:43:32;;;;;;;11.13;8.13;;;;;;;;;;5010199;28;20481;-61
2021/10/10 01:45:58;;;;;;;11.95;8.20;;;;;;;;;;5010800;28;20037;-61
2021/10/10 01:48:24;;;;;;;9.32;7.43;;;;;;;;;;5010505;28;20029;-61
2021/10/10 01:50:50;;;;;;;13.30;7.63;;;;;;;;;;5010657;28;20030;-61
2021/10/10 01:53:16;;;;;;;14.35;7.90;;;;;;;;;;5072995;27;20478;-61
2021/10/10 01:55:44;;;;;;;10.27;7.97;;;;;;;;;;5134335;27;20028;-61
2021/10/10 01:58:10;;;;;;;13.32;8.07;;;;;;;;;;5134063;27;20015;-61
2021/10/10 02:00:36;;;;;;;9.93;7.47;;;;;;;;;;5063332;27;20025;-61
2021/10/10 02:03:02;;;;;;;11.25;7.75;;;;;;;;;;5029912;28;20415;-62
2021/10/10 02:05:28;;;;;;;10.13;7.50;;;;;;;;;;5029970;28;20033;-60
2021/10/10 02:07:55;;;;;;;10.48;7.90;;;;;;;;;;5098485;28;20021;-61
2021/10/10 02:10:21;;;;;;;11.02;7.43;;;;;;;;;;5030233;28;20022;-61
2021/10/10 02:12:47;;;;;;;10.77;7.18;;;;;;;;;;5030357;28;20377;-61
2021/10/10 02:15:13;;;;;;;9.93;7.72;;;;;;;;;;5028820;28;20026;-61
2021/10/10 02:17:39;;;;;;;9.85;7.25;;;;;;;;;;5010418;28;20033;-60
2021/10/10 02:20:06;;;;;;;11.15;7.55;;;;;;;;;;5010069;28;20022;-61
2021/10/10 02:22:33;;;;;;;11.32;7.25;;;;;;;;;;5010218;28;20064;-61
2021/10/10 02:24:59;;;;;;;10.63;6.93;;;;;;;;;;5010405;28;20064;-61
2021/10/10 02:27:25;;;;;;;10.73;7.70;;;;;;;;;;5009224;28;20041;-61
2021/10/10 02:29:51;;;;;;;10.02;7.25;;;;;;;;;;5010199;28;20026;-61
2021/10/10 02:32:17;;;;;;;12.35;7.32;;;;;;;;;;5021359;28;20030;-61
2021/10/10 02:34:43;;;;;;;12.20;7.53;;;;;;;;;;5030150;28;20037;-61
2021/10/10 02:37:09;;;;;;;9.20;6.97;;;;;;;;;;5029589;28;20503;-61
2021/10/10 02:39:36;;;;;;;13.80;7.40;;;;;;;;;;5029695;28;20037;-61
2021/10/10 02:42:02;;;;;;;10.45;7.45;;;;;;;;;;5029680;28;20100;-61
2021/10/10 02:44:28;;;;;;;10.27;7.10;;;;;;;;;;5029507;28;20033;-61
2021/10/10 02:46:55;;;;;;;8.73;6.85;;;;;;;;;;5029710;28;20021;-61
2021/10/10 02:49:21;;;;;;;9.02;6.70;;;;;;;;;;5028354;28;20067;-61
2021/10/10 02:51:47;;;;;;;11.48;7.00;;;;;;;;;;5029325;28;20017;-61
2021/10/10 02:54:13;;;;;;;11.75;6.60;;;;;;;;;;5029431;28;20053;-61
2021/10/10 02:56:39;;;;;;;7.93;6.88;;;;;;;;;;5029492;28;20065;-60
2021/10/10 02:59:05;;;;;;;10.10;6.40;;;;;;;;;;5029579;28;20021;-61
2021/10/10 03:01:31;;;;;;;10.65;7.15;;;;;;;;;;5029590;28;20029;-61
2021/10/10 03:03:57;;;;;;;8.30;7.15;;;;;;;;;;5029143;28;20062;-61
2021/10/10 03:06:23;;;;;;;9.95;7.10;;;;;;;;;;5017326;28;20058;-61
2021/10/10 03:08:49;;;;;;;8.65;6.95;;;;;;;;;;5077253;28;20036;-61
2021/10/10 03:11:15;;;;;;;9.93;7.10;;;;;;;;;;5009680;28;20030;-61
2021/10/10 03:13:41;;;;;;;11.60;7.20;;;;;;;;;;5009778;28;20051;-61
2021/10/10 03:16:07;;;;;;;13.65;6.85;;;;;;;;;;5009780;28;20067;-61
2021/10/10 03:18:33;;;;;;;12.13;6.78;;;;;;;;;;5009591;28;20113;-61
2021/10/10 03:20:59;;;;;;;12.23;7.15;;;;;;;;;;5009535;28;20385;-61
2021/10/10 03:23:25;;;;;;;7.97;6.88;;;;;;;;;;5023915;28;20033;-61
2021/10/10 03:25:51;;;;;;;8.10;6.85;;;;;;;;;;5029047;28;20537;-61
2021/10/10 03:28:17;;;;;;;8.98;6.78;;;;;;;;;;5029244;28;20028;-60
2021/10/10 03:30:43;;;;;;;8.38;7.47;;;;;;;;;;5029240;28;20041;-61
2021/10/10 03:33:09;;;;;;;11.35;7.30;;;;;;;;;;5029227;28;20022;-61
2021/10/10 03:35:35;;;;;;;8.05;6.88;;;;;;;;;;5097255;28;20106;-61
2021/10/10 03:38:01;;;;;;;12.27;8.68;;;;;;;;;;5028927;28;20033;-60
2021/10/10 03:40:28;;;;;;;8.48;7.13;;;;;;;;;;5012797;28;20097;-61
2021/10/10 03:42:54;;;;;;;12.48;7.53;;;;;;;;;;5013027;28;20075;-61
2021/10/10 03:45:20;;;;;;;10.27;7.70;;;;;;;;;;5012428;28;20042;-61
2021/10/10 03:47:46;;;;;;;12.00;8.68;;;;;;;;;;5012863;28;20453;-61
2021/10/10 03:50:12;;;;;;;11.57;8.18;;;;;;;;;;5012464;28;20051;-61
2021/10/10 03:52:41;;;;;;;11.98;8.07;;;;;;;;;;5042079;27;20103;-61
2021/10/10 03:57:46;;;;;;;9.57;7.60;;;;;;;;;;5054405;27;20049;-61
2021/10/10 04:00:13;;;;;;;12.32;8.63;;;;;;;;;;5032131;28;20052;-61
2021/10/10 04:02:40;;;;;;;9.88;8.50;;;;;;;;;;5032068;28;20022;-61
2021/10/10 04:05:16;;;;;;;13.05;9.02;;;;;;;;;;5032104;28;20117;-61
2021/10/10 04:07:42;;;;;;;12.90;9.73;;;;;;;;;;5031922;28;20102;-60
2021/10/10 04:10:08;;;;;;;16.17;9.23;;;;;;;;;;5032050;28;20029;-60
2021/10/10 04:12:35;;;;;;;13.23;9.32;;;;;;;;;;5032190;28;20086;-60
2021/10/10 04:15:00;;;;;;;11.35;9.00;;;;;;;;;;5030704;28;20053;-61
2021/10/10 04:17:26;;;;;;;11.95;8.82;;;;;;;;;;5031790;28;20025;-61
2021/10/10 04:19:52;;;;;;;13.75;9.27;;;;;;;;;;5100105;28;20033;-61
2021/10/10 04:22:18;;;;;;;11.07;8.93;;;;;;;;;;5031669;28;20034;-60
2021/10/10 04:24:44;;;;;;;12.25;9.15;;;;;;;;;;5031423;28;20037;-60
2021/10/10 04:27:10;;;;;;;11.20;8.98;;;;;;;;;;5032094;28;20500;-60
2021/10/10 04:29:36;;;;;;;11.93;8.63;;;;;;;;;;5031748;28;20388;-61
2021/10/10 04:32:02;;;;;;;11.73;8.75;;;;;;;;;;5030165;28;20044;-61
2021/10/10 04:34:28;;;;;;;11.02;9.10;;;;;;;;;;5031761;28;20058;-61
2021/10/10 04:36:54;;;;;;;11.05;9.00;;;;;;;;;;5031323;28;20093;-61
2021/10/10 04:39:20;;;;;;;11.63;9.18;;;;;;;;;;5031421;28;20034;-61
2021/10/10 04:41:47;;;;;;;11.20;8.57;;;;;;;;;;5031602;28;20100;-61
2021/10/10 04:44:13;;;;;;;11.18;8.82;;;;;;;;;;5031519;28;20513;-61
2021/10/10 04:46:39;;;;;;;16.17;9.10;;;;;;;;;;5028075;28;20022;-61
2021/10/10 04:49:05;;;;;;;13.10;8.82;;;;;;;;;;5010838;28;20030;-60
2021/10/10 04:51:31;;;;;;;11.75;9.15;;;;;;;;;;5012029;28;20067;-61
2021/10/10 04:53:57;;;;;;;12.52;8.55;;;;;;;;;;5108250;27;20030;-61
2021/10/10 04:56:23;;;;;;;10.05;8.40;;;;;;;;;;5135545;27;20035;-62
2021/10/10 04:58:49;;;;;;;10.48;8.43;;;;;;;;;;5135637;27;20025;-61
2021/10/10 05:01:15;;;;;;;11.45;9.50;;;;;;;;;;5135415;27;20432;-61
2021/10/10 05:03:41;;;;;;;11.27;8.85;;;;;;;;;;5020373;27;20038;-61
2021/10/10 05:06:07;;;;;;;12.43;8.65;;;;;;;;;;5079070;28;20033;-61
2021/10/10 05:08:33;;;;;;;14.20;8.70;;;;;;;;;;5011397;28;20472;-61
2021/10/10 05:10:59;;;;;;;10.55;8.75;;;;;;;;;;5011474;28;20026;-61
2021/10/10 05:13:25;;;;;;;12.75;9.07;;;;;;;;;;5011525;28;20026;-61
2021/10/10 05:15:51;;;;;;;12.35;8.82;;;;;;;;;;5011092;28;20412;-61
2021/10/10 05:18:17;;;;;;;11.93;8.57;;;;;;;;;;5011221;28;20036;-61
2021/10/10 05:20:43;;;;;;;16.20;8.50;;;;;;;;;;5010577;28;20042;-61
2021/10/10 05:23:10;;;;;;;13.18;8.45;;;;;;;;;;5011365;28;20022;-61
2021/10/10 05:25:37;;;;;;;10.77;8.27;;;;;;;;;;5011211;28;20041;-61
2021/10/10 05:28:03;;;;;;;15.27;9.07;;;;;;;;;;5011075;28;20030;-61
2021/10/10 05:30:29;;;;;;;10.55;8.75;;;;;;;;;;5011457;28;20030;-61
2021/10/10 05:32:55;;;;;;;15.18;8.75;;;;;;;;;;5010883;28;20107;-62
2021/10/10 05:35:21;;;;;;;11.85;8.75;;;;;;;;;;5010739;28;20390;-61
2021/10/10 05:37:47;;;;;;;10.00;8.55;;;;;;;;;;5010161;28;20041;-61
2021/10/10 05:40:13;;;;;;;12.13;9.40;;;;;;;;;;5010870;28;20033;-60
2021/10/10 05:42:39;;;;;;;14.48;9.50;;;;;;;;;;5011006;28;20072;-61
2021/10/10 05:45:06;;;;;;;22.65;9.40;;;;;;;;;;5010624;28;20091;-61
2021/10/10 05:47:32;;;;;;;11.75;9.50;;;;;;;;;;5010825;28;20026;-61
2021/10/10 05:49:58;;;;;;;17.13;9.25;;;;;;;;;;5010593;28;20054;-61
2021/10/10 05:52:26;;;;;;;23.13;10.00;;;;;;;;;;5014226;27;20027;-61
2021/10/10 05:54:52;;;;;;;18.42;10.07;;;;;;;;;;5072214;27;20023;-60
2021/10/10 05:57:21;;;;;;;14.55;9.88;;;;;;;;;;5134454;27;20395;-61
2021/10/10 05:59:48;;;;;;;30.90;10.40;;;;;;;;;;5134351;27;20405;-60
2021/10/10 06:02:14;;;;;;;22.20;9.35;;;;;;;;;;5132790;27;20030;-61
2021/10/10 06:04:40;;;;;;;14.95;10.05;;;;;;;;;;5112537;27;20027;-60
2021/10/10 06:07:06;;;;;;;12.18;9.90;;;;;;;;;;5091627;27;20060;-60
2021/10/10 06:09:33;;;;;;;14.20;9.98;;;;;;;;;;5106374;27;20031;-61
2021/10/10 06:12:00;;;;;;;14.10;10.30;;;;;;;;;;5058128;27;20031;-60
2021/10/10 06:14:28;;;;;;;13.13;10.13;;;;;;;;;;5075453;27;20025;-60
2021/10/10 06:16:55;;;;;;;20.55;9.73;;;;;;;;;;5073298;27;20052;-62
2021/10/10 06:19:21;;;;;;;13.90;10.27;;;;;;;;;;5066029;27;20108;-61
2021/10/10 06:21:47;;;;;;;15.15;10.35;;;;;;;;;;5095221;27;20091;-61
2021/10/10 06:24:13;;;;;;;15.30;10.85;;;;;;;;;;5097703;28;20132;-61
2021/10/10 06:26:39;;;;;;;11.75;9.90;;;;;;;;;;5081354;27;20076;-61
2021/10/10 06:29:05;;;;;;;11.63;9.75;;;;;;;;;;5086626;27;20019;-64
2021/10/10 06:31:31;;;;;;;11.95;9.85;;;;;;;;;;5073770;27;20430;-61
2021/10/10 06:33:57;;;;;;;13.55;10.48;;;;;;;;;;5074117;27;20469;-61
2021/10/10 06:36:23;;;;;;;13.25;10.57;;;;;;;;;;5101615;27;20145;-62
2021/10/10 06:38:49;;;;;;;13.85;10.57;;;;;;;;;;5110621;27;20474;-60
2021/10/10 06:41:16;;;;;;;16.83;9.95;;;;;;;;;;5073185;27;20018;-61
2021/10/10 06:43:42;;;;;;;18.40;11.10;;;;;;;;;;5098794;28;20023;-61
2021/10/10 06:46:09;;;;;;;17.88;12.00;;;;;;;;;;5084776;27;20113;-61
2021/10/10 06:48:35;;;;;;;17.75;11.63;;;;;;;;;;5072761;27;20022;-62
2021/10/10 06:51:01;;;;;;;19.95;12.23;;;;;;;;;;5089903;28;20438;-61
2021/10/10 06:53:27;;;;;;;21.77;10.35;;;;;;;;;;5066311;28;20029;-61
2021/10/10 06:55:53;;;;;;;14.07;10.98;;;;;;;;;;5043371;28;20030;-61
2021/10/10 06:58:21;;;;;;;16.48;10.55;;;;;;;;;;5084465;28;20015;-61
2021/10/10 07:00:47;;;;;;;18.55;10.63;;;;;;;;;;5101527;28;20541;-62
2021/10/10 07:03:13;;;;;;;22.23;11.65;;;;;;;;;;5097052;28;20117;-61
2021/10/10 07:05:39;;;;;;;14.77;11.27;;;;;;;;;;5089333;28;20117;-61
2021/10/10 07:08:05;;;;;;;14.50;10.95;;;;;;;;;;5093343;28;20012;-61
2021/10/10 07:10:31;;;;;;;18.88;11.07;;;;;;;;;;5099077;28;20675;-61
2021/10/10 07:12:57;;;;;;;15.60;11.68;;;;;;;;;;5096975;27;20023;-61
2021/10/10 07:15:23;;;;;;;17.73;11.70;;;;;;;;;;5070678;27;20072;-62
2021/10/10 07:17:58;;;;;;;13.82;10.88;;;;;;;;;;5068586;27;20069;-60
2021/10/10 07:26:02;;;;;;;13.85;10.80;;;;;;;;;;5061081;27;20121;-60
2021/10/10 07:28:28;;;;;;;36.20;11.52;;;;;;;;;;5056871;27;20086;-60
2021/10/10 07:30:54;;;;;;;18.48;10.38;;;;;;;;;;5083740;27;20657;-61
2021/10/10 07:33:21;;;;;;;16.95;10.80;;;;;;;;;;5058059;27;20023;-60
2021/10/10 07:35:47;;;;;;;13.15;10.65;;;;;;;;;;5083559;27;20086;-63
2021/10/10 07:38:13;;;;;;;15.80;10.02;;;;;;;;;;5032101;28;20029;-60
2021/10/10 07:40:39;;;;;;;13.32;10.73;;;;;;;;;;5031678;28;20021;-60
2021/10/10 07:43:05;;;;;;;16.65;11.40;;;;;;;;;;5071866;27;20051;-60
2021/10/10 07:45:33;;;;;;;20.45;11.57;;;;;;;;;;5077973;27;20079;-62
2021/10/10 07:48:03;;;;;;;14.85;11.77;;;;;;;;;;5085222;27;20039;-61
2021/10/10 07:50:29;;;;;;;12.82;9.93;;;;;;;;;;5041490;27;20029;-60
2021/10/10 07:52:55;;;;;;;19.05;8.60;;;;;;;;;;5071961;27;20033;-61
2021/10/10 07:55:21;;;;;;;16.63;9.70;;;;;;;;;;5099974;28;20091;-60
2021/10/10 07:57:47;;;;;;;17.27;10.57;;;;;;;;;;5060899;27;20029;-59
2021/10/10 08:00:14;;;;;;;15.52;9.73;;;;;;;;;;5057828;27;20041;-59
2021/10/10 08:02:49;;;;;;;18.80;10.73;;;;;;;;;;5075719;27;20363;-59
2021/10/10 08:05:15;;;;;;;19.05;10.98;;;;;;;;;;5069429;27;20686;-59
2021/10/10 08:07:41;;;;;;;17.40;11.52;;;;;;;;;;5062709;27;20042;-59
2021/10/10 08:10:08;;;;;;;18.67;11.65;;;;;;;;;;5135660;27;20031;-59
2021/10/10 08:12:33;;;;;;;18.60;12.43;;;;;;;;;;5135495;27;20482;-59
2021/10/10 08:14:59;;;;;;;18.10;13.32;;;;;;;;;;5135758;27;20054;-59
2021/10/10 08:17:25;;;;;;;17.13;12.25;;;;;;;;;;5135327;27;20424;-59
2021/10/10 08:19:51;;;;;;;16.08;12.25;;;;;;;;;;5135616;27;20162;-59
2021/10/10 08:22:18;;;;;;;19.92;13.43;;;;;;;;;;5117127;27;20024;-59
2021/10/10 08:24:44;;;;;;;19.00;13.30;;;;;;;;;;5096266;27;20037;-59
2021/10/10 08:27:10;;;;;;;19.77;12.77;;;;;;;;;;5031227;28;20021;-60
2021/10/10 08:29:36;;;;;;;20.55;14.88;;;;;;;;;;5071318;27;20064;-60
2021/10/10 08:32:02;;;;;;;23.83;15.25;;;;;;;;;;5077319;27;20033;-60
2021/10/10 08:34:28;;;;;;;22.48;16.25;;;;;;;;;;5090860;27;20086;-60
2021/10/10 08:36:54;;;;;;;24.85;15.73;;;;;;;;;;5090502;27;20048;-61
2021/10/10 08:39:24;;;;;;;25.55;17.00;;;;;;;;;;5084658;27;20036;-60
2021/10/10 08:41:53;;;;;;;24.45;16.00;;;;;;;;;;5073407;27;20074;-60
2021/10/10 08:44:22;;;;;;;23.60;15.75;;;;;;;;;;5034050;27;20041;-59
2021/10/10 08:46:48;;;;;;;23.90;16.45;;;;;;;;;;5030808;28;20072;-60
2021/10/10 08:49:14;;;;;;;26.35;16.92;;;;;;;;;;5030841;28;20451;-62
2021/10/10 08:51:40;;;;;;;23.10;16.38;;;;;;;;;;5030792;28;20043;-60
2021/10/10 08:54:06;;;;;;;19.85;14.27;;;;;;;;;;5118848;27;20023;-60
2021/10/10 08:56:33;;;;;;;26.52;14.35;;;;;;;;;;5134843;27;20028;-60
2021/10/10 08:58:59;;;;;;;32.33;16.10;;;;;;;;;;5058893;27;20022;-62
2021/10/10 09:01:31;;;;;;;27.02;15.45;;;;;;;;;;5030524;28;20046;-60
2021/10/10 09:03:57;;;;;;;30.30;15.70;;;;;;;;;;5030892;28;20041;-60
2021/10/10 09:06:24;;;;;;;35.70;15.32;;;;;;;;;;5030776;28;20042;-58
2021/10/10 09:08:50;;;;;;;28.50;16.20;;;;;;;;;;5030568;28;20022;-59
2021/10/10 09:11:16;;;;;;;34.58;17.77;;;;;;;;;;5030422;28;20362;-61
2021/10/10 09:13:43;;;;;;;37.55;20.17;;;;;;;;;;5028871;28;20410;-60
2021/10/10 09:16:09;;;;;;;33.25;20.17;;;;;;;;;;5010316;28;20041;-59
2021/10/10 09:18:40;;;;;;;37.70;21.40;;;;;;;;;;5009808;28;20014;-59
2021/10/10 09:21:17;;;;;;;36.85;20.95;;;;;;;;;;5065925;27;20023;-59
2021/10/10 09:23:45;;;;;;;38.22;22.55;;;;;;;;;;5114858;27;20214;-60
2021/10/10 09:26:11;;;;;;;40.75;24.58;;;;;;;;;;5133434;27;20770;-59
2021/10/10 09:28:39;;;;;;;37.15;23.42;;;;;;;;;;5114759;27;20098;-59
2021/10/10 09:31:06;;;;;;;45.15;24.13;;;;;;;;;;5092121;28;20057;-59
2021/10/10 09:33:36;;;;;;;36.30;24.77;;;;;;;;;;5010170;28;20033;-59
2021/10/10 09:36:04;;;;;;;43.22;26.02;;;;;;;;;;5112900;27;20062;-59
2021/10/10 09:38:40;;;;;;;42.17;26.45;;;;;;;;;;5134323;27;20030;-58
2021/10/10 09:41:09;;;;;;;45.55;27.50;;;;;;;;;;5133752;27;20698;-59
2021/10/10 09:43:55;;;;;;;46.72;28.30;;;;;;;;;;5133820;27;20049;-59
2021/10/10 09:46:24;;;;;;;44.85;26.25;;;;;;;;;;5118206;27;20030;-59
2021/10/10 09:48:50;;;;;;;39.92;25.85;;;;;;;;;;5029536;28;20078;-60
2021/10/10 09:51:33;;;;;;;45.72;26.95;;;;;;;;;;5029700;28;20076;-59
2021/10/10 09:54:08;;;;;;;43.15;23.65;;;;;;;;;;5112243;27;20019;-59
2021/10/10 09:56:34;;;;;;;43.78;25.05;;;;;;;;;;5133720;27;20039;-62
2021/10/10 09:59:00;;;;;;;45.63;25.77;;;;;;;;;;5133459;27;20026;-63
2021/10/10 10:01:29;;;;;;;48.90;23.92;;;;;;;;;;5133147;27;20392;-60
2021/10/10 10:03:55;;;;;;;55.03;23.85;;;;;;;;;;5129860;27;20438;-60
2021/10/10 10:06:21;;;;;;;46.58;23.58;;;;;;;;;;5009795;28;20033;-62
2021/10/10 10:08:47;;;;;;;43.13;23.30;;;;;;;;;;5009670;28;20086;-60
2021/10/10 10:11:14;;;;;;;48.10;24.45;;;;;;;;;;5009634;28;20568;-61
2021/10/10 10:13:40;;;;;;;40.20;23.58;;;;;;;;;;5009390;28;20033;-60
2021/10/10 10:16:07;;;;;;;43.15;23.27;;;;;;;;;;5009826;28;20064;-61
2021/10/10 10:18:35;;;;;;;49.17;22.77;;;;;;;;;;5009313;28;20029;-60
2021/10/10 10:21:02;;;;;;;41.60;22.92;;;;;;;;;;5060625;27;20055;-62
2021/10/10 10:23:31;;;;;;;43.22;23.83;;;;;;;;;;5133147;27;20050;-61
2021/10/10 10:25:57;;;;;;;48.53;23.00;;;;;;;;;;5132871;27;20105;-60
2021/10/10 10:28:23;;;;;;;40.63;22.98;;;;;;;;;;5132749;27;20023;-59
2021/10/10 10:30:49;;;;;;;40.92;22.05;;;;;;;;;;5130006;27;20030;-60
2021/10/10 10:33:15;;;;;;;38.65;22.55;;;;;;;;;;5106456;27;20065;-60
2021/10/10 10:35:45;;;;;;;52.10;23.17;;;;;;;;;;5064258;27;20525;-60
2021/10/10 10:38:11;;;;;;;45.83;23.10;;;;;;;;;;5078934;27;20377;-60
2021/10/10 10:40:40;;;;;;;44.80;22.55;;;;;;;;;;5076135;27;20128;-59
2021/10/10 10:43:07;;;;;;;39.08;23.30;;;;;;;;;;5109693;28;20518;-60
2021/10/10 10:45:45;;;;;;;41.45;23.52;;;;;;;;;;5117558;27;20042;-59
2021/10/10 10:48:31;;;;;;;41.22;22.42;;;;;;;;;;5062904;27;20017;-60
2021/10/10 10:51:23;;;;;;;41.83;23.63;;;;;;;;;;5087423;27;20039;-62
2021/10/10 10:53:49;;;;;;;46.28;24.00;;;;;;;;;;5085779;28;20034;-61
2021/10/10 10:56:25;;;;;;;42.33;24.05;;;;;;;;;;5018329;28;20015;-60
2021/10/10 10:58:53;;;;;;;44.05;23.15;;;;;;;;;;5079625;28;20041;-60
2021/10/10 11:01:19;;;;;;;40.00;23.42;;;;;;;;;;5016095;28;20014;-59
2021/10/10 11:03:46;;;;;;;44.75;24.40;;;;;;;;;;5014291;28;20026;-60
2021/10/10 11:06:12;;;;;;;40.85;23.85;;;;;;;;;;5018033;28;20462;-60
2021/10/10 11:08:42;;;;;;;45.47;24.27;;;;;;;;;;5035431;28;20019;-60
2021/10/10 11:11:15;;;;;;;38.00;23.08;;;;;;;;;;5024426;28;20113;-61
2021/10/10 11:13:41;;;;;;;;;;;;;;;;;;5032971;28;20017;-62
2021/10/10 11:16:08;;;;;;;35.75;22.38;;;;;;;;;;5070710;28;19903;-63
2021/10/10 11:18:36;;;;;;;39.40;23.00;;;;;;;;;;5084613;28;20044;-62
2021/10/10 11:21:04;;;;;;;40.53;24.33;;;;;;;;;;5115089;28;20023;-60
2021/10/10 11:23:30;;;;;;;37.03;24.15;;;;;;;;;;5091621;28;20087;-59
2021/10/10 11:25:59;;;;;;;37.50;23.17;;;;;;;;;;5091158;28;20057;-60
2021/10/10 11:28:37;;;;;;;33.40;22.45;;;;;;;;;;5085456;28;20031;-59
2021/10/10 11:31:10;;;;;;;34.42;23.02;;;;;;;;;;5085768;28;20025;-62
2021/10/10 11:33:37;;;;;;;36.45;22.27;;;;;;;;;;5085818;28;20057;-60
2021/10/10 11:36:03;;;;;;;36.70;22.83;;;;;;;;;;5102950;28;20045;-59
2021/10/10 11:38:29;;;;;;;36.63;22.27;;;;;;;;;;5079101;28;20027;-59
2021/10/10 11:40:59;;;;;;;34.17;22.42;;;;;;;;;;5057312;28;20025;-61
2021/10/10 11:43:25;;;;;;;28.95;20.38;;;;;;;;;;5088090;28;20027;-60
2021/10/10 11:45:55;;;;;;;32.00;21.33;;;;;;;;;;5102655;28;20080;-58
2021/10/10 11:48:31;;;;;;;34.97;21.02;;;;;;;;;;5078551;28;20076;-62
2021/10/10 11:50:57;;;;;;;39.53;20.80;;;;;;;;;;5080692;28;20126;-61
2021/10/10 11:53:34;;;;;;;38.63;19.40;;;;;;;;;;5098552;28;20090;-59
2021/10/10 11:56:03;;;;;;;35.22;19.13;;;;;;;;;;5083974;28;20019;-61
2021/10/10 11:58:31;;;;;;;30.42;18.83;;;;;;;;;;5082306;27;20030;-62
2021/10/10 12:01:07;;;;;;;30.13;18.95;;;;;;;;;;5082121;27;20026;-61
2021/10/10 12:03:33;;;;;;;26.88;17.98;;;;;;;;;;5074839;27;20026;-60
2021/10/10 12:05:59;;;;;;;32.58;18.08;;;;;;;;;;5083405;27;20087;-59
2021/10/10 12:08:25;;;;;;;31.70;18.55;;;;;;;;;;5083249;27;20098;-60
2021/10/10 12:10:52;;;;;;;33.38;18.45;;;;;;;;;;5087183;27;20027;-62
2021/10/10 12:13:20;;;;;;;32.60;18.48;;;;;;;;;;5066440;27;20408;-61
2021/10/10 12:16:03;;;;;;;25.15;17.55;;;;;;;;;;5074797;27;20025;-61
2021/10/10 12:18:30;;;;;;;34.88;18.50;;;;;;;;;;5072834;27;20123;-62
2021/10/10 12:21:15;;;;;;;26.75;17.15;;;;;;;;;;5102826;27;20022;-62
2021/10/10 12:23:41;;;;;;;27.50;17.58;;;;;;;;;;5084088;27;20121;-62
2021/10/10 12:26:09;;;;;;;28.63;16.75;;;;;;;;;;5078779;27;20122;-62
2021/10/10 12:28:35;;;;;;;30.38;17.10;;;;;;;;;;5086047;27;20100;-61
2021/10/10 12:31:02;;;;;;;24.42;16.88;;;;;;;;;;5070644;27;20029;-61
2021/10/10 12:33:29;;;;;;;25.65;16.08;;;;;;;;;;5079638;27;20597;-62
2021/10/10 12:35:55;;;;;;;22.10;17.05;;;;;;;;;;5081613;27;20409;-61
2021/10/10 12:38:28;;;;;;;26.27;16.58;;;;;;;;;;5076288;27;20061;-60
2021/10/10 12:40:54;;;;;;;24.13;16.00;;;;;;;;;;5083243;27;20030;-60
2021/10/10 12:43:43;;;;;;;21.45;15.63;;;;;;;;;;5098331;27;20029;-59
2021/10/10 12:46:08;;;;;;;25.48;15.75;;;;;;;;;;5073057;27;20377;-60
2021/10/10 12:48:35;;;;;;;25.92;15.98;;;;;;;;;;5072810;27;20482;-59
2021/10/10 12:51:01;;;;;;;25.75;16.45;;;;;;;;;;5110520;27;20071;-60
2021/10/10 12:53:30;;;;;;;27.50;16.15;;;;;;;;;;5073203;27;20070;-61
2021/10/10 12:56:16;;;;;;;21.77;15.73;;;;;;;;;;5076189;27;20023;-60
2021/10/10 12:58:48;;;;;;;22.55;15.60;;;;;;;;;;5060719;27;20026;-60
2021/10/10 13:01:14;;;;;;;27.87;16.50;;;;;;;;;;5103585;27;20034;-61
2021/10/10 13:03:39;;;;;;;30.85;15.65;;;;;;;;;;5086383;27;20037;-62
2021/10/10 13:06:05;;;;;;;21.88;15.27;;;;;;;;;;5050087;27;20038;-60
2021/10/10 13:08:31;;;;;;;22.05;14.88;;;;;;;;;;5106996;27;20034;-61
2021/10/10 13:10:57;;;;;;;23.98;16.13;;;;;;;;;;5032228;27;20025;-61
2021/10/10 13:13:24;;;;;;;29.25;14.82;;;;;;;;;;5049323;27;20042;-62
2021/10/10 13:15:50;;;;;;;25.13;14.73;;;;;;;;;;5073345;27;20034;-61
2021/10/10 13:18:16;;;;;;;26.33;13.70;;;;;;;;;;5109537;27;20661;-61
2021/10/10 13:20:42;;;;;;;28.35;15.27;;;;;;;;;;5046576;27;20054;-60
2021/10/10 13:23:08;;;;;;;25.38;14.38;;;;;;;;;;5070861;27;20038;-61
2021/10/10 13:25:34;;;;;;;28.70;13.90;;;;;;;;;;5070027;27;20067;-61
2021/10/10 13:28:00;;;;;;;25.40;14.20;;;;;;;;;;5087628;27;20015;-61
2021/10/10 13:30:26;;;;;;;24.92;14.23;;;;;;;;;;5085032;27;20040;-62
2021/10/10 13:32:52;;;;;;;24.20;14.85;;;;;;;;;;5084084;27;20040;-62
2021/10/10 13:35:18;;;;;;;27.05;14.65;;;;;;;;;;5077394;27;20016;-62
2021/10/10 13:37:44;;;;;;;25.33;14.35;;;;;;;;;;5077337;27;20061;-62
2021/10/10 13:40:10;;;;;;;21.10;14.50;;;;;;;;;;5076185;27;20038;-59
2021/10/10 13:42:36;;;;;;;25.42;15.50;;;;;;;;;;5082892;27;20021;-59
2021/10/10 13:45:02;;;;;;;25.50;15.35;;;;;;;;;;5074791;27;20031;-59
2021/10/10 13:47:28;;;;;;;25.30;17.13;;;;;;;;;;5080861;27;20050;-61
2021/10/10 13:49:54;;;;;;;31.58;17.08;;;;;;;;;;5082909;27;20524;-60
2021/10/10 13:52:20;;;;;;;34.22;18.08;;;;;;;;;;5079613;27;20022;-59
2021/10/10 13:54:47;;;;;;;31.90;17.95;;;;;;;;;;5107485;27;20101;-59
2021/10/10 13:57:13;;;;;;;35.90;19.65;;;;;;;;;;5084111;27;20030;-59
2021/10/10 13:59:39;;;;;;;38.33;21.17;;;;;;;;;;5079269;27;20102;-60
2021/10/10 14:02:05;;;;;;;50.22;20.67;;;;;;;;;;5087460;27;20027;-59
2021/10/10 14:04:31;;;;;;;38.60;19.95;;;;;;;;;;5132688;27;20031;-60
2021/10/10 14:06:57;;;;;;;36.50;19.08;;;;;;;;;;5133486;27;20050;-60
2021/10/10 14:09:23;;;;;;;38.40;19.20;;;;;;;;;;5133509;27;20065;-59
2021/10/10 14:11:49;;;;;;;37.63;20.10;;;;;;;;;;5133281;27;20034;-59
2021/10/10 14:14:15;;;;;;;34.53;19.08;;;;;;;;;;5061267;27;20042;-59
2021/10/10 14:16:41;;;;;;;40.08;19.40;;;;;;;;;;5066705;27;20361;-59
2021/10/10 14:19:07;;;;;;;55.72;17.38;;;;;;;;;;5058632;27;20034;-60
2021/10/10 14:21:36;;;;;;;53.40;22.13;;;;;;;;;;5081021;27;20031;-60
2021/10/10 14:24:02;;;;;;;47.28;20.83;;;;;;;;;;5076183;27;20018;-60
2021/10/10 14:26:28;;;;;;;38.85;17.23;;;;;;;;;;5080979;27;20023;-59
2021/10/10 14:28:54;;;;;;;43.60;19.25;;;;;;;;;;5072507;27;20015;-59
2021/10/10 14:31:20;;;;;;;52.90;21.55;;;;;;;;;;5086751;27;20032;-59